Time,TemperatureF,DewpointF,PressureIn,WindDirection,WindDirectionDegrees,WindSpeedMPH,WindSpeedGustMPH,Humidity,HourlyPrecipIn,Conditions,Clouds,dailyrainin,SolarRadiationWatts/m^2,SoftwareType,DateUTC
2013-06-08 00:00:00,70.0,69.1,29.80,SW,216,0.0,0.0,97,0.00,,,2.96,0,Wunderground v.1.15,2013-06-08 04:00:00,
2013-06-08 00:05:00,70.1,69.2,29.80,SSE,168,0.0,0.0,97,0.00,,,0.00,0,Wunderground v.1.15,2013-06-08 04:05:00,
2013-06-08 00:10:00,70.1,69.2,29.81,South,188,0.0,0.0,97,0.00,,,0.00,0,Wunderground v.1.15,2013-06-08 04:10:00,
2013-06-08 00:15:00,69.9,69.0,29.81,SW,215,0.0,0.0,97,0.00,,,0.00,0,Wunderground v.1.15,2013-06-08 04:15:00,
2013-06-08 00:20:00,70.0,69.1,29.80,SW,234,0.0,0.0,97,0.00,,,0.00,0,Wunderground v.1.15,2013-06-08 04:20:00,
2013-06-08 00:25:00,70.0,69.1,29.81,SSW,193,0.0,0.0,97,0.00,,,0.00,0,Wunderground v.1.15,2013-06-08 04:25:00,
2013-06-08 00:30:00,70.0,69.1,29.81,South,175,0.0,0.0,97,0.00,,,0.00,0,Wunderground v.1.15,2013-06-08 04:30:00,
2013-06-08 00:35:00,70.0,69.1,29.81,South,175,0.0,0.0,97,0.00,,,0.00,0,Wunderground v.1.15,2013-06-08 04:35:00,
2013-06-08 00:40:00,70.0,69.1,29.81,South,175,0.0,0.0,97,0.00,,,0.00,0,Wunderground v.1.15,2013-06-08 04:40:00,
2013-06-08 00:45:00,70.0,69.1,29.81,South,175,0.0,0.0,97,0.00,,,0.00,0,Wunderground v.1.15,2013-06-08 04:45:00,
2013-06-08 00:50:00,70.1,69.2,29.81,South,175,0.0,0.0,97,0.00,,,0.00,0,Wunderground v.1.15,2013-06-08 04:50:00,
2013-06-08 00:55:00,70.0,69.1,29.80,South,175,0.0,0.0,97,0.00,,,0.00,0,Wunderground v.1.15,2013-06-08 04:55:00,
2013-06-08 01:05:00,69.9,69.0,29.81,South,175,0.0,0.0,97,0.00,,,0.00,0,Wunderground v.1.15,2013-06-08 05:05:00,
2013-06-08 01:10:00,69.9,69.0,29.81,South,175,0.0,0.0,97,0.00,,,0.00,0,Wunderground v.1.15,2013-06-08 05:10:00,
2013-06-08 01:20:00,69.9,69.3,29.81,South,175,0.0,0.0,98,0.00,,,0.00,0,Wunderground v.1.15,2013-06-08 05:20:00,
2013-06-08 01:25:00,69.8,69.2,29.80,South,175,0.0,0.0,98,0.00,,,0.00,0,Wunderground v.1.15,2013-06-08 05:25:00,
2013-06-08 01:30:00,69.8,69.2,29.80,South,175,0.0,0.0,98,0.00,,,0.00,0,Wunderground v.1.15,2013-06-08 05:30:00,
2013-06-08 01:40:00,69.8,69.2,29.81,South,175,0.0,0.0,98,0.00,,,0.00,0,Wunderground v.1.15,2013-06-08 05:40:00,
2013-06-08 01:45:00,69.7,69.1,29.81,South,175,0.0,0.0,98,0.00,,,0.00,0,Wunderground v.1.15,2013-06-08 05:45:00,
2013-06-08 01:50:00,69.7,69.1,29.80,South,175,0.0,0.0,98,0.00,,,0.00,0,Wunderground v.1.15,2013-06-08 05:50:00,
2013-06-08 01:55:00,69.7,69.1,29.80,South,175,0.0,0.0,98,0.00,,,0.00,0,Wunderground v.1.15,2013-06-08 05:55:00,
2013-06-08 02:00:00,69.7,69.1,29.80,South,175,0.0,0.0,98,0.00,,,0.00,0,Wunderground v.1.15,2013-06-08 06:00:00,
2013-06-08 02:05:00,69.5,68.9,29.80,South,175,0.0,0.0,98,0.00,,,0.00,0,Wunderground v.1.15,2013-06-08 06:05:00,
2013-06-08 02:10:00,69.5,68.9,29.80,South,175,0.0,0.0,98,0.00,,,0.00,0,Wunderground v.1.15,2013-06-08 06:10:00,
2013-06-08 02:20:00,69.5,68.9,29.81,SSE,167,0.0,0.0,98,0.00,,,0.00,0,Wunderground v.1.15,2013-06-08 06:20:00,
2013-06-08 02:25:00,69.5,68.9,29.81,SE,141,0.0,0.0,98,0.00,,,0.00,0,Wunderground v.1.15,2013-06-08 06:25:00,
2013-06-08 02:30:00,69.6,69.0,29.81,SSE,153,0.0,0.0,98,0.00,,,0.00,0,Wunderground v.1.15,2013-06-08 06:30:00,
2013-06-08 02:35:00,69.6,69.0,29.81,South,175,0.0,0.0,98,0.00,,,0.00,0,Wunderground v.1.15,2013-06-08 06:35:00,
2013-06-08 02:40:00,69.5,68.9,29.82,SSE,167,0.0,0.0,98,0.00,,,0.00,0,Wunderground v.1.15,2013-06-08 06:40:00,
2013-06-08 02:45:00,69.5,68.9,29.82,SSE,155,0.0,0.0,98,0.00,,,0.00,0,Wunderground v.1.15,2013-06-08 06:45:00,
2013-06-08 02:50:00,69.6,69.0,29.81,South,175,0.0,0.0,98,0.00,,,0.00,0,Wunderground v.1.15,2013-06-08 06:50:00,
2013-06-08 03:00:00,69.6,69.0,29.82,South,187,1.0,4.0,98,0.00,,,0.00,0,Wunderground v.1.15,2013-06-08 07:00:00,
2013-06-08 03:05:00,69.5,68.9,29.82,South,186,3.0,5.0,98,0.00,,,0.00,0,Wunderground v.1.15,2013-06-08 07:05:00,
2013-06-08 03:10:00,69.6,69.0,29.83,South,173,4.0,6.0,98,0.00,,,0.00,0,Wunderground v.1.15,2013-06-08 07:10:00,
2013-06-08 03:15:00,69.7,69.1,29.83,South,180,4.0,6.0,98,0.00,,,0.00,0,Wunderground v.1.15,2013-06-08 07:15:00,
2013-06-08 03:20:00,69.7,69.1,29.83,South,170,4.0,4.0,98,0.00,,,0.00,0,Wunderground v.1.15,2013-06-08 07:20:00,
2013-06-08 03:30:00,69.9,69.3,29.83,South,173,4.0,5.0,98,0.00,,,0.00,0,Wunderground v.1.15,2013-06-08 07:30:00,
2013-06-08 03:35:00,69.9,69.3,29.83,SSE,167,4.0,5.0,98,0.00,,,0.00,0,Wunderground v.1.15,2013-06-08 07:35:00,
2013-06-08 03:45:00,70.0,69.4,29.83,South,186,3.0,4.0,98,0.00,,,0.00,0,Wunderground v.1.15,2013-06-08 07:45:00,
2013-06-08 03:50:00,70.1,69.5,29.83,SSW,210,2.0,4.0,98,0.00,,,0.00,0,Wunderground v.1.15,2013-06-08 07:50:00,
2013-06-08 03:55:00,70.1,69.5,29.83,SSW,210,2.0,4.0,98,0.00,,,0.00,0,Wunderground v.1.15,2013-06-08 07:55:00,
2013-06-08 04:00:00,70.1,69.5,29.83,South,182,1.0,1.0,98,0.00,,,0.00,0,Wunderground v.1.15,2013-06-08 08:00:00,
2013-06-08 04:05:00,70.1,69.5,29.83,South,190,0.0,1.0,98,0.00,,,0.00,0,Wunderground v.1.15,2013-06-08 08:05:00,
2013-06-08 04:10:00,70.1,69.5,29.83,South,190,0.0,0.0,98,0.00,,,0.00,0,Wunderground v.1.15,2013-06-08 08:10:00,
2013-06-08 04:15:00,70.2,69.6,29.82,South,190,0.0,0.0,98,0.00,,,0.00,0,Wunderground v.1.15,2013-06-08 08:15:00,
2013-06-08 04:20:00,70.2,69.6,29.83,SSW,197,0.0,0.0,98,0.00,,,0.00,0,Wunderground v.1.15,2013-06-08 08:20:00,
2013-06-08 04:25:00,70.2,69.6,29.83,South,185,0.0,0.0,98,0.00,,,0.00,0,Wunderground v.1.15,2013-06-08 08:25:00,
2013-06-08 04:30:00,70.2,69.6,29.83,South,177,0.0,0.0,98,0.00,,,0.00,0,Wunderground v.1.15,2013-06-08 08:30:00,
2013-06-08 04:40:00,70.2,69.6,29.82,South,177,0.0,0.0,98,0.00,,,0.00,0,Wunderground v.1.15,2013-06-08 08:40:00,
2013-06-08 04:45:00,70.3,69.7,29.83,South,177,0.0,0.0,98,0.00,,,0.00,0,Wunderground v.1.15,2013-06-08 08:45:00,
2013-06-08 04:55:00,70.2,69.6,29.83,South,177,0.0,0.0,98,0.00,,,0.00,0,Wunderground v.1.15,2013-06-08 08:55:00,
2013-06-08 05:00:00,70.2,69.6,29.83,South,177,0.0,0.0,98,0.00,,,0.00,0,Wunderground v.1.15,2013-06-08 09:00:00,
2013-06-08 05:05:00,70.2,69.6,29.83,South,177,0.0,0.0,98,0.00,,,0.00,0,Wunderground v.1.15,2013-06-08 09:05:00,
2013-06-08 05:10:00,70.2,69.6,29.83,South,177,0.0,0.0,98,0.00,,,0.00,0,Wunderground v.1.15,2013-06-08 09:10:00,
2013-06-08 05:15:00,70.1,69.5,29.83,South,177,0.0,0.0,98,0.00,,,0.00,0,Wunderground v.1.15,2013-06-08 09:15:00,
2013-06-08 05:20:00,70.0,69.4,29.84,South,177,0.0,0.0,98,0.00,,,0.00,0,Wunderground v.1.15,2013-06-08 09:20:00,
2013-06-08 05:25:00,69.8,69.2,29.84,South,177,0.0,0.0,98,0.00,,,0.00,0,Wunderground v.1.15,2013-06-08 09:25:00,
2013-06-08 05:30:00,69.9,69.3,29.84,South,177,0.0,0.0,98,0.00,,,0.00,0,Wunderground v.1.15,2013-06-08 09:30:00,
2013-06-08 05:40:00,69.9,69.3,29.84,South,177,0.0,0.0,98,0.00,,,0.00,0,Wunderground v.1.15,2013-06-08 09:40:00,
2013-06-08 05:45:00,69.9,69.3,29.85,South,177,0.0,0.0,98,0.00,,,0.00,0,Wunderground v.1.15,2013-06-08 09:45:00,
2013-06-08 05:55:00,69.9,69.3,29.86,South,177,0.0,0.0,98,0.00,,,0.00,0,Wunderground v.1.15,2013-06-08 09:55:00,
2013-06-08 06:00:00,69.9,69.3,29.86,South,177,0.0,0.0,98,0.00,,,0.00,0,Wunderground v.1.15,2013-06-08 10:00:00,
2013-06-08 06:05:00,69.9,69.3,29.86,South,177,0.0,0.0,98,0.00,,,0.00,0,Wunderground v.1.15,2013-06-08 10:05:00,
2013-06-08 06:10:00,69.9,69.3,29.85,South,177,0.0,0.0,98,0.00,,,0.00,0,Wunderground v.1.15,2013-06-08 10:10:00,
2013-06-08 06:15:00,69.9,69.3,29.86,South,177,0.0,0.0,98,0.00,,,0.00,0,Wunderground v.1.15,2013-06-08 10:15:00,
2013-06-08 06:20:00,69.8,69.2,29.86,South,177,0.0,0.0,98,0.00,,,0.00,0,Wunderground v.1.15,2013-06-08 10:20:00,
2013-06-08 06:25:00,69.8,69.2,29.86,South,177,0.0,0.0,98,0.00,,,0.00,5,Wunderground v.1.15,2013-06-08 10:25:00,
2013-06-08 06:35:00,69.7,69.1,29.87,South,177,0.0,0.0,98,0.00,,,0.00,18,Wunderground v.1.15,2013-06-08 10:35:00,
2013-06-08 06:40:00,69.8,69.2,29.88,South,177,0.0,0.0,98,0.00,,,0.00,18,Wunderground v.1.15,2013-06-08 10:40:00,
2013-06-08 06:45:00,69.8,69.2,29.88,South,177,0.0,0.0,98,0.00,,,0.00,25,Wunderground v.1.15,2013-06-08 10:45:00,
2013-06-08 09:45:00,70.7,69.2,29.93,South,171,0.0,0.0,95,0.00,,,0.01,7,Wunderground v.1.15,2013-06-08 13:45:00,
2013-06-08 09:50:00,70.5,69.0,29.93,South,171,0.0,0.0,95,0.00,,,0.01,14,Wunderground v.1.15,2013-06-08 13:50:00,
2013-06-08 09:55:00,70.5,69.0,29.93,South,171,0.0,0.0,95,0.00,,,0.02,21,Wunderground v.1.15,2013-06-08 13:55:00,
2013-06-08 10:05:00,70.0,68.5,29.95,NNW,327,0.0,8.0,95,0.99,,,0.12,16,Wunderground v.1.15,2013-06-08 14:05:00,
2013-06-08 10:10:00,69.0,67.5,29.95,NW,317,4.0,9.0,95,0.41,,,0.19,16,Wunderground v.1.15,2013-06-08 14:10:00,
2013-06-08 10:15:00,67.8,66.0,29.96,NW,310,9.0,14.0,94,0.15,,,0.20,58,Wunderground v.1.15,2013-06-08 14:15:00,
2013-06-08 10:25:00,66.7,64.9,29.96,NW,313,7.0,8.0,94,0.06,,,0.21,93,Wunderground v.1.15,2013-06-08 14:25:00,
2013-06-08 10:30:00,66.2,64.7,29.97,NNW,336,7.0,7.0,95,0.06,,,0.21,40,Wunderground v.1.15,2013-06-08 14:30:00,
2013-06-08 10:35:00,66.1,64.6,29.97,NW,317,7.0,8.0,95,0.05,,,0.21,58,Wunderground v.1.15,2013-06-08 14:35:00,
2013-06-08 10:40:00,65.9,64.4,29.97,NW,318,7.0,9.0,95,0.04,,,0.21,79,Wunderground v.1.15,2013-06-08 14:40:00,
2013-06-08 10:45:00,65.8,64.3,29.97,NW,312,6.0,9.0,95,0.00,,,0.21,121,Wunderground v.1.15,2013-06-08 14:45:00,
2013-06-08 10:50:00,65.7,64.5,29.98,NNW,330,6.0,7.0,96,0.00,,,0.21,209,Wunderground v.1.15,2013-06-08 14:50:00,
2013-06-08 10:55:00,65.8,64.3,29.97,NW,323,5.0,7.0,95,0.00,,,0.21,462,Wunderground v.1.15,2013-06-08 14:55:00,
2013-06-08 11:05:00,65.9,64.4,29.97,NNW,328,4.0,5.0,95,0.00,,,0.21,780,Wunderground v.1.15,2013-06-08 15:05:00,
2013-06-08 11:15:00,66.3,64.8,29.97,North,5,4.0,4.0,95,0.00,,,0.21,902,Wunderground v.1.15,2013-06-08 15:15:00,
2013-06-08 11:20:00,66.5,64.4,29.97,NW,313,4.0,4.0,93,0.00,,,0.21,1021,Wunderground v.1.15,2013-06-08 15:20:00,
2013-06-08 11:25:00,66.8,64.7,29.96,NW,325,3.0,4.0,93,0.00,,,0.21,981,Wunderground v.1.15,2013-06-08 15:25:00,
2013-06-08 11:30:00,67.1,64.7,29.96,NW,325,1.0,1.0,92,0.00,,,0.21,438,Wunderground v.1.15,2013-06-08 15:30:00,
2013-06-08 11:35:00,67.3,64.9,29.96,NW,319,0.0,5.0,92,0.00,,,0.21,411,Wunderground v.1.15,2013-06-08 15:35:00,
2013-06-08 11:40:00,67.5,65.1,29.97,NW,321,1.0,1.0,92,0.00,,,0.21,408,Wunderground v.1.15,2013-06-08 15:40:00,
2013-06-08 11:45:00,67.7,65.6,29.97,NW,321,1.0,1.0,93,0.00,,,0.21,315,Wunderground v.1.15,2013-06-08 15:45:00,
2013-06-08 11:50:00,67.8,65.4,29.96,NW,321,1.0,2.0,92,0.00,,,0.21,870,Wunderground v.1.15,2013-06-08 15:50:00,
2013-06-08 11:55:00,67.9,65.8,29.96,NW,321,1.0,2.0,93,0.00,,,0.21,715,Wunderground v.1.15,2013-06-08 15:55:00,
2013-06-08 12:00:00,68.0,65.6,29.97,NW,321,0.0,0.0,92,0.00,,,0.21,378,Wunderground v.1.15,2013-06-08 16:00:00,
2013-06-08 12:10:00,68.2,65.8,29.97,WNW,300,3.0,4.0,92,0.00,,,0.21,385,Wunderground v.1.15,2013-06-08 16:10:00,
2013-06-08 12:20:00,68.4,66.0,29.97,NW,304,3.0,5.0,92,0.00,,,0.21,998,Wunderground v.1.15,2013-06-08 16:20:00,
2013-06-08 12:25:00,68.5,66.1,29.97,WNW,302,3.0,5.0,92,0.00,,,0.21,954,Wunderground v.1.15,2013-06-08 16:25:00,
2013-06-08 12:35:00,68.7,66.0,29.98,WNW,301,3.0,4.0,91,0.00,,,0.21,963,Wunderground v.1.15,2013-06-08 16:35:00,
2013-06-08 12:40:00,69.1,67.0,29.97,WNW,301,1.0,1.0,93,0.00,,,0.21,965,Wunderground v.1.15,2013-06-08 16:40:00,
2013-06-08 12:45:00,69.6,67.5,29.97,WNW,301,0.0,1.0,93,0.00,,,0.21,972,Wunderground v.1.15,2013-06-08 16:45:00,
2013-06-08 12:50:00,69.8,67.1,29.97,WNW,301,0.0,0.0,91,0.00,,,0.21,970,Wunderground v.1.15,2013-06-08 16:50:00,
2013-06-08 12:55:00,69.9,66.2,29.97,WNW,301,0.0,0.0,88,0.00,,,0.21,970,Wunderground v.1.15,2013-06-08 16:55:00,
2013-06-08 13:05:00,70.7,66.0,29.96,NW,326,0.0,0.0,85,0.00,,,0.21,88,Wunderground v.1.15,2013-06-08 17:05:00,
2013-06-08 13:10:00,71.2,65.4,29.96,NW,326,0.0,7.0,82,0.00,,,0.21,86,Wunderground v.1.15,2013-06-08 17:10:00,
2013-06-08 13:15:00,71.5,65.7,29.96,NW,326,0.0,7.0,82,0.00,,,0.21,118,Wunderground v.1.15,2013-06-08 17:15:00,
2013-06-08 13:20:00,71.8,66.0,29.96,NW,326,0.0,7.0,82,0.00,,,0.21,984,Wunderground v.1.15,2013-06-08 17:20:00,
2013-06-08 13:25:00,72.1,66.6,29.96,NW,326,0.0,7.0,83,0.00,,,0.21,991,Wunderground v.1.15,2013-06-08 17:25:00,
2013-06-08 13:35:00,72.6,66.8,29.96,NNW,335,2.0,7.0,82,0.00,,,0.21,833,Wunderground v.1.15,2013-06-08 17:35:00,
2013-06-08 13:40:00,73.0,66.8,29.96,NNW,344,2.0,7.0,81,0.00,,,0.21,995,Wunderground v.1.15,2013-06-08 17:40:00,
2013-06-08 13:45:00,73.2,67.0,29.96,NNW,342,2.0,7.0,81,0.00,,,0.21,991,Wunderground v.1.15,2013-06-08 17:45:00,
2013-06-08 13:50:00,73.3,67.5,29.97,NNW,342,1.0,7.0,82,0.00,,,0.21,984,Wunderground v.1.15,2013-06-08 17:50:00,
2013-06-08 14:00:00,74.0,67.4,29.96,SW,217,1.0,7.0,80,0.00,,,0.21,983,Wunderground v.1.15,2013-06-08 18:00:00,
2013-06-08 14:05:00,74.7,67.4,29.96,SSW,204,1.0,7.0,78,0.00,,,0.21,979,Wunderground v.1.15,2013-06-08 18:05:00,
2013-06-08 14:10:00,75.2,67.9,29.96,SSW,200,3.0,7.0,78,0.00,,,0.21,979,Wunderground v.1.15,2013-06-08 18:10:00,
2013-06-08 14:15:00,75.9,68.2,29.96,WSW,238,3.0,8.0,77,0.00,,,0.21,977,Wunderground v.1.15,2013-06-08 18:15:00,
2013-06-08 14:25:00,76.1,68.4,29.95,WNW,284,2.0,7.0,77,0.00,,,0.21,962,Wunderground v.1.15,2013-06-08 18:25:00,
2013-06-08 14:30:00,75.4,67.3,29.95,NW,315,3.0,7.0,76,0.00,,,0.21,962,Wunderground v.1.15,2013-06-08 18:30:00,
2013-06-08 14:35:00,74.9,67.6,29.95,NW,309,5.0,7.0,78,0.00,,,0.21,951,Wunderground v.1.15,2013-06-08 18:35:00,
2013-06-08 14:40:00,74.8,67.5,29.96,NW,311,3.0,3.0,78,0.00,,,0.21,947,Wunderground v.1.15,2013-06-08 18:40:00,
2013-06-08 14:45:00,74.8,67.8,29.96,NNW,330,2.0,7.0,79,0.00,,,0.21,942,Wunderground v.1.15,2013-06-08 18:45:00,
2013-06-08 14:55:00,75.2,68.6,29.95,NW,323,1.0,7.0,80,0.00,,,0.21,928,Wunderground v.1.15,2013-06-08 18:55:00,
2013-06-08 15:00:00,74.8,67.8,29.96,NW,323,3.0,3.0,79,0.00,,,0.21,925,Wunderground v.1.15,2013-06-08 19:00:00,
2013-06-08 15:10:00,75.1,68.9,29.96,NNW,331,2.0,2.0,81,0.00,,,0.21,914,Wunderground v.1.15,2013-06-08 19:10:00,
2013-06-08 15:15:00,75.0,68.4,29.96,NNW,334,1.0,7.0,80,0.00,,,0.21,891,Wunderground v.1.15,2013-06-08 19:15:00,
2013-06-08 15:20:00,75.3,69.1,29.96,NNW,340,1.0,1.0,81,0.00,,,0.21,884,Wunderground v.1.15,2013-06-08 19:20:00,
2013-06-08 15:25:00,75.6,69.0,29.96,NNW,342,2.0,6.0,80,0.00,,,0.21,863,Wunderground v.1.15,2013-06-08 19:25:00,
2013-06-08 15:35:00,76.1,69.1,29.96,NNW,327,4.0,7.0,79,0.00,,,0.21,902,Wunderground v.1.15,2013-06-08 19:35:00,
2013-06-08 15:40:00,76.2,68.5,29.96,NNW,334,3.0,7.0,77,0.00,,,0.21,886,Wunderground v.1.15,2013-06-08 19:40:00,
2013-06-08 15:45:00,76.3,69.7,29.96,NNW,334,3.0,7.0,80,0.00,,,0.21,882,Wunderground v.1.15,2013-06-08 19:45:00,
2013-06-08 15:50:00,76.4,69.4,29.96,NNW,336,2.0,7.0,79,0.00,,,0.21,837,Wunderground v.1.15,2013-06-08 19:50:00,
2013-06-08 15:55:00,76.7,68.9,29.96,NNW,330,3.0,7.0,77,0.00,,,0.21,846,Wunderground v.1.15,2013-06-08 19:55:00,
2013-06-08 16:05:00,77.0,68.5,29.96,NW,325,2.0,7.0,75,0.00,,,0.21,810,Wunderground v.1.15,2013-06-08 20:05:00,
2013-06-08 16:10:00,77.3,69.5,29.96,NNW,336,3.0,3.0,77,0.00,,,0.21,780,Wunderground v.1.15,2013-06-08 20:10:00,
2013-06-08 16:15:00,77.3,69.5,29.96,NNW,335,3.0,5.0,77,0.00,,,0.21,795,Wunderground v.1.15,2013-06-08 20:15:00,
2013-06-08 16:20:00,77.3,69.5,29.96,NNW,329,4.0,4.0,77,0.00,,,0.21,758,Wunderground v.1.15,2013-06-08 20:20:00,
2013-06-08 16:25:00,77.2,69.0,29.97,NNW,337,4.0,5.0,76,0.00,,,0.21,752,Wunderground v.1.15,2013-06-08 20:25:00,
2013-06-08 16:35:00,77.4,68.9,29.97,NNW,334,4.0,7.0,75,0.00,,,0.21,719,Wunderground v.1.15,2013-06-08 20:35:00,
2013-06-08 16:40:00,77.6,70.2,29.97,NNW,346,4.0,4.0,78,0.00,,,0.21,701,Wunderground v.1.15,2013-06-08 20:40:00,
2013-06-08 16:45:00,77.4,70.0,29.97,NNW,337,2.0,7.0,78,0.00,,,0.21,694,Wunderground v.1.15,2013-06-08 20:45:00,
2013-06-08 16:50:00,77.4,68.9,29.97,NNW,344,3.0,7.0,75,0.00,,,0.21,679,Wunderground v.1.15,2013-06-08 20:50:00,
2013-06-08 16:55:00,77.6,68.7,29.98,NNW,336,4.0,7.0,74,0.00,,,0.21,664,Wunderground v.1.15,2013-06-08 20:55:00,
2013-06-08 17:05:00,77.7,68.7,29.97,NNW,329,3.0,7.0,74,0.00,,,0.21,636,Wunderground v.1.15,2013-06-08 21:05:00,
2013-06-08 17:10:00,77.9,68.5,29.97,NNW,335,3.0,7.0,73,0.00,,,0.21,624,Wunderground v.1.15,2013-06-08 21:10:00,
2013-06-08 17:15:00,78.2,68.8,29.98,NNW,329,4.0,7.0,73,0.00,,,0.21,599,Wunderground v.1.15,2013-06-08 21:15:00,
2013-06-08 17:20:00,78.4,68.6,29.97,NNW,335,3.0,3.0,72,0.00,,,0.21,591,Wunderground v.1.15,2013-06-08 21:20:00,
2013-06-08 17:25:00,78.7,68.5,29.98,NNW,338,2.0,7.0,71,0.00,,,0.21,577,Wunderground v.1.15,2013-06-08 21:25:00,
2013-06-08 17:35:00,78.7,68.1,29.98,NNW,327,2.0,7.0,70,0.00,,,0.21,545,Wunderground v.1.15,2013-06-08 21:35:00,
2013-06-08 17:40:00,78.6,67.6,29.98,NNW,329,3.0,3.0,69,0.00,,,0.21,529,Wunderground v.1.15,2013-06-08 21:40:00,
2013-06-08 17:45:00,78.6,67.6,29.98,NW,313,3.0,5.0,69,0.00,,,0.21,515,Wunderground v.1.15,2013-06-08 21:45:00,
2013-06-08 17:55:00,79.0,67.5,29.99,NW,323,2.0,7.0,68,0.00,,,0.21,475,Wunderground v.1.15,2013-06-08 21:55:00,
2013-06-08 18:00:00,79.2,68.1,29.98,NW,313,2.0,2.0,69,0.00,,,0.21,457,Wunderground v.1.15,2013-06-08 22:00:00,
2013-06-08 18:05:00,79.4,67.5,29.99,NNW,334,2.0,7.0,67,0.00,,,0.21,439,Wunderground v.1.15,2013-06-08 22:05:00,
2013-06-08 18:10:00,79.5,67.6,29.99,NW,321,2.0,7.0,67,0.00,,,0.21,422,Wunderground v.1.15,2013-06-08 22:10:00,
2013-06-08 18:15:00,79.4,67.9,29.99,NNW,327,2.0,7.0,68,0.00,,,0.21,403,Wunderground v.1.15,2013-06-08 22:15:00,
2013-06-08 18:25:00,79.2,67.7,29.99,NNW,338,2.0,7.0,68,0.00,,,0.21,369,Wunderground v.1.15,2013-06-08 22:25:00,
2013-06-08 18:30:00,79.3,68.2,29.99,NNW,338,1.0,7.0,69,0.00,,,0.21,352,Wunderground v.1.15,2013-06-08 22:30:00,
2013-06-08 18:35:00,79.4,67.9,29.99,NW,324,1.0,7.0,68,0.00,,,0.21,338,Wunderground v.1.15,2013-06-08 22:35:00,
2013-06-08 18:40:00,79.4,68.3,30.00,NNW,331,1.0,7.0,69,0.00,,,0.21,322,Wunderground v.1.15,2013-06-08 22:40:00,
2013-06-08 18:50:00,79.3,68.7,30.00,NW,319,2.0,2.0,70,0.00,,,0.21,285,Wunderground v.1.15,2013-06-08 22:50:00,
2013-06-08 18:55:00,79.2,68.6,30.00,NW,319,1.0,7.0,70,0.00,,,0.21,216,Wunderground v.1.15,2013-06-08 22:55:00,
2013-06-08 19:00:00,79.1,68.1,30.00,NW,319,1.0,1.0,69,0.00,,,0.21,237,Wunderground v.1.15,2013-06-08 23:00:00,
2013-06-08 19:05:00,79.5,70.5,30.00,NW,319,0.0,7.0,74,0.00,,,0.21,244,Wunderground v.1.15,2013-06-08 23:05:00,
2013-06-08 19:15:00,79.4,69.6,30.01,NW,319,0.0,7.0,72,0.00,,,0.21,190,Wunderground v.1.15,2013-06-08 23:15:00,
2013-06-08 19:20:00,78.9,69.5,30.01,NW,319,0.0,7.0,73,0.00,,,0.21,178,Wunderground v.1.15,2013-06-08 23:20:00,
2013-06-08 19:25:00,78.9,70.7,30.01,NW,319,0.0,7.0,76,0.00,,,0.21,163,Wunderground v.1.15,2013-06-08 23:25:00,
2013-06-08 19:30:00,78.7,70.5,30.01,NW,319,0.0,7.0,76,0.00,,,0.21,128,Wunderground v.1.15,2013-06-08 23:30:00,
2013-06-08 19:35:00,78.1,70.7,30.01,NW,319,0.0,7.0,78,0.00,,,0.21,125,Wunderground v.1.15,2013-06-08 23:35:00,
2013-06-08 19:45:00,77.4,71.5,30.02,NW,319,0.0,7.0,82,0.00,,,0.21,105,Wunderground v.1.15,2013-06-08 23:45:00,
2013-06-08 19:50:00,77.0,71.4,30.02,NW,319,0.0,7.0,83,0.00,,,0.21,88,Wunderground v.1.15,2013-06-08 23:50:00,
2013-06-08 19:55:00,76.7,71.5,30.02,NW,319,0.0,7.0,84,0.00,,,0.21,77,Wunderground v.1.15,2013-06-08 23:55:00,
2013-06-08 20:00:00,76.2,71.4,30.02,NW,319,0.0,7.0,85,0.00,,,0.21,62,Wunderground v.1.15,2013-06-09 00:00:00,
2013-06-08 20:05:00,75.9,71.1,30.02,NW,319,0.0,7.0,85,0.00,,,0.21,47,Wunderground v.1.15,2013-06-09 00:05:00,
2013-06-08 20:15:00,75.2,70.0,30.02,NW,319,0.0,7.0,84,0.00,,,0.21,23,Wunderground v.1.15,2013-06-09 00:15:00,
2013-06-08 20:20:00,75.0,70.2,30.02,NW,319,0.0,7.0,85,0.00,,,0.21,14,Wunderground v.1.15,2013-06-09 00:20:00,
2013-06-08 20:25:00,74.8,70.0,30.02,NW,319,0.0,7.0,85,0.00,,,0.21,7,Wunderground v.1.15,2013-06-09 00:25:00,
2013-06-08 20:30:00,74.2,69.4,30.03,NW,319,0.0,7.0,85,0.00,,,0.21,0,Wunderground v.1.15,2013-06-09 00:30:00,
2013-06-08 20:40:00,73.5,69.4,30.03,NW,319,0.0,7.0,87,0.00,,,0.21,0,Wunderground v.1.15,2013-06-09 00:40:00,
2013-06-08 20:45:00,73.3,69.2,30.03,NW,319,0.0,7.0,87,0.00,,,0.21,0,Wunderground v.1.15,2013-06-09 00:45:00,
2013-06-08 20:50:00,72.9,69.1,30.03,NW,319,0.0,7.0,88,0.00,,,0.21,0,Wunderground v.1.15,2013-06-09 00:50:00,
2013-06-08 20:55:00,72.6,68.8,30.03,NW,319,0.0,7.0,88,0.00,,,0.21,0,Wunderground v.1.15,2013-06-09 00:55:00,
2013-06-08 21:00:00,72.2,68.4,30.03,NW,319,0.0,7.0,88,0.00,,,0.21,0,Wunderground v.1.15,2013-06-09 01:00:00,
2013-06-08 21:10:00,71.2,68.1,30.04,NW,319,0.0,7.0,90,0.00,,,0.21,0,Wunderground v.1.15,2013-06-09 01:10:00,
2013-06-08 21:15:00,70.9,68.1,30.04,NW,319,0.0,7.0,91,0.00,,,0.21,0,Wunderground v.1.15,2013-06-09 01:15:00,
2013-06-08 21:20:00,70.5,68.1,30.04,NW,319,0.0,7.0,92,0.00,,,0.21,0,Wunderground v.1.15,2013-06-09 01:20:00,
2013-06-08 21:25:00,70.2,68.1,30.05,NW,319,0.0,7.0,93,0.00,,,0.21,0,Wunderground v.1.15,2013-06-09 01:25:00,
2013-06-08 21:35:00,69.7,67.6,30.05,NW,319,0.0,7.0,93,0.00,,,0.21,0,Wunderground v.1.15,2013-06-09 01:35:00,
2013-06-08 21:40:00,69.4,67.6,30.05,NW,319,0.0,7.0,94,0.00,,,0.21,0,Wunderground v.1.15,2013-06-09 01:40:00,
2013-06-08 21:45:00,69.3,67.5,30.05,NW,319,0.0,7.0,94,0.00,,,0.21,0,Wunderground v.1.15,2013-06-09 01:45:00,
2013-06-08 21:50:00,69.2,67.4,30.06,NW,319,0.0,7.0,94,0.00,,,0.21,0,Wunderground v.1.15,2013-06-09 01:50:00,
2013-06-08 22:00:00,68.9,67.1,30.07,NW,319,0.0,7.0,94,0.00,,,0.21,0,Wunderground v.1.15,2013-06-09 02:00:00,
2013-06-08 22:05:00,68.8,67.3,30.07,NW,319,0.0,7.0,95,0.00,,,0.21,0,Wunderground v.1.15,2013-06-09 02:05:00,
2013-06-08 22:10:00,68.8,67.3,30.07,NW,319,0.0,7.0,95,0.00,,,0.21,0,Wunderground v.1.15,2013-06-09 02:10:00,
2013-06-08 22:15:00,68.8,67.3,30.07,NW,319,0.0,7.0,95,0.00,,,0.21,0,Wunderground v.1.15,2013-06-09 02:15:00,
2013-06-08 22:20:00,68.9,67.4,30.07,NW,319,0.0,7.0,95,0.00,,,0.21,0,Wunderground v.1.15,2013-06-09 02:20:00,
2013-06-08 22:30:00,68.8,67.3,30.07,NW,319,0.0,7.0,95,0.00,,,0.21,0,Wunderground v.1.15,2013-06-09 02:30:00,
2013-06-08 22:35:00,68.6,67.1,30.07,NW,319,0.0,7.0,95,0.00,,,0.21,0,Wunderground v.1.15,2013-06-09 02:35:00,
2013-06-08 22:40:00,68.3,66.8,30.07,NW,319,0.0,7.0,95,0.00,,,0.21,0,Wunderground v.1.15,2013-06-09 02:40:00,
2013-06-08 22:50:00,67.9,66.4,30.08,NW,319,0.0,7.0,95,0.00,,,0.21,0,Wunderground v.1.15,2013-06-09 02:50:00,
2013-06-08 22:55:00,67.6,66.1,30.07,NW,319,0.0,7.0,95,0.00,,,0.21,0,Wunderground v.1.15,2013-06-09 02:55:00,
2013-06-08 23:00:00,67.6,66.4,30.07,NW,319,0.0,7.0,96,0.00,,,0.21,0,Wunderground v.1.15,2013-06-09 03:00:00,
2013-06-08 23:05:00,67.8,66.9,30.08,NW,319,0.0,7.0,97,0.00,,,0.21,0,Wunderground v.1.15,2013-06-09 03:05:00,
2013-06-08 23:10:00,67.9,66.7,30.08,NW,319,0.0,7.0,96,0.00,,,0.21,0,Wunderground v.1.15,2013-06-09 03:10:00,
2013-06-08 23:20:00,67.5,66.3,30.08,NW,319,0.0,7.0,96,0.00,,,0.21,0,Wunderground v.1.15,2013-06-09 03:20:00,
2013-06-08 23:25:00,67.3,66.1,30.08,NW,319,0.0,7.0,96,0.00,,,0.21,0,Wunderground v.1.15,2013-06-09 03:25:00,
2013-06-08 23:30:00,67.4,66.2,30.08,NW,319,0.0,7.0,96,0.00,,,0.21,0,Wunderground v.1.15,2013-06-09 03:30:00,
2013-06-08 23:35:00,67.3,66.1,30.08,NW,319,0.0,7.0,96,0.00,,,0.21,0,Wunderground v.1.15,2013-06-09 03:35:00,
2013-06-08 23:45:00,67.0,66.1,30.08,NW,319,0.0,7.0,97,0.00,,,0.21,0,Wunderground v.1.15,2013-06-09 03:45:00,
2013-06-08 23:50:00,67.1,66.2,30.08,NW,319,0.0,7.0,97,0.00,,,0.21,0,Wunderground v.1.15,2013-06-09 03:50:00,
2013-06-08 23:55:00,67.0,66.1,30.08,NW,319,0.0,7.0,97,0.00,,,0.21,0,Wunderground v.1.15,2013-06-09 03:55:00,